createdAt,value
2019-04-21T00:01:57.824Z,9.27
2019-04-21T00:04:38.024Z,10.23
2019-04-21T00:07:15.368Z,7.40
2019-04-21T00:12:19.672Z,8.87
2019-04-21T00:14:39.558Z,7.10
2019-04-21T00:17:03.583Z,7.97
2019-04-21T00:19:33.191Z,10.13
2019-04-21T00:22:08.615Z,9.30
2019-04-21T00:24:44.324Z,7.23
2019-04-21T00:27:18.746Z,8.27
2019-04-21T00:29:49.778Z,10.50
2019-04-21T00:32:16.587Z,10.20
2019-04-21T00:34:30.272Z,10.37
2019-04-21T00:37:11.291Z,10.03
2019-04-21T00:39:58.792Z,9.53
2019-04-21T00:42:18.105Z,11.30
2019-04-21T00:44:44.177Z,9.40
2019-04-21T00:47:25.090Z,10.27
2019-04-21T00:49:52.648Z,8.20
2019-04-21T00:52:47.636Z,10.07
2019-04-21T00:55:17.710Z,9.23
2019-04-21T00:57:38.887Z,21.50
2019-04-21T01:00:10.191Z,11.27
2019-04-21T01:02:40.168Z,10.30
2019-04-21T01:05:07.434Z,8.77
2019-04-21T01:07:31.563Z,9.10
2019-04-21T01:09:55.819Z,9.33
2019-04-21T01:12:33.422Z,9.43
2019-04-21T01:15:09.246Z,8.80
2019-04-21T01:17:35.730Z,8.97
2019-04-21T01:19:57.479Z,9.00
2019-04-21T01:22:12.903Z,8.53
2019-04-21T01:24:45.282Z,10.50
2019-04-21T01:27:24.046Z,10.80
2019-04-21T01:30:01.216Z,9.67
2019-04-21T01:32:39.012Z,9.03
2019-04-21T01:35:05.251Z,8.07
2019-04-21T01:37:40.847Z,9.23
2019-04-21T01:40:09.734Z,9.90
2019-04-21T01:42:31.657Z,9.40
2019-04-21T01:45:04.334Z,10.20
2019-04-21T01:47:37.590Z,8.60
2019-04-21T01:49:59.496Z,9.20
2019-04-21T01:52:43.953Z,12.33
2019-04-21T01:55:13.803Z,9.47
2019-04-21T01:57:42.543Z,9.07
2019-04-21T02:00:13.294Z,9.37
2019-04-21T02:02:54.959Z,10.00
2019-04-21T02:05:28.381Z,9.60
2019-04-21T02:07:49.483Z,9.83
2019-04-21T02:10:26.691Z,7.83
2019-04-21T02:12:50.945Z,9.47
2019-04-21T02:15:25.047Z,10.80
2019-04-21T02:17:53.719Z,11.60
2019-04-21T02:20:15.301Z,9.70
2019-04-21T02:23:13.005Z,10.37
2019-04-21T02:25:26.322Z,12.53
2019-04-21T02:27:57.531Z,10.53
2019-04-21T02:30:40.676Z,9.17
2019-04-21T02:33:13.607Z,12.80
2019-04-21T02:35:40.596Z,13.53
2019-04-21T02:40:48.099Z,14.63
2019-04-21T02:43:13.239Z,9.43
2019-04-21T02:45:37.813Z,8.03
2019-04-21T02:48:09.780Z,9.83
2019-04-21T02:50:37.619Z,10.20
2019-04-21T02:53:09.539Z,10.10
2019-04-21T02:55:42.333Z,10.20
2019-04-21T02:58:25.524Z,9.73
2019-04-21T03:01:07.706Z,8.87
2019-04-21T03:06:15.438Z,10.50
2019-04-21T03:08:50.093Z,8.97
2019-04-21T03:13:48.634Z,8.57
2019-04-21T03:18:48.527Z,12.63
2019-04-21T03:21:16.195Z,12.27
2019-04-21T03:23:58.340Z,9.93
2019-04-21T03:31:39.306Z,11.63
2019-04-21T03:36:43.897Z,9.07
2019-04-21T03:39:13.768Z,9.30
2019-04-21T03:41:37.749Z,8.50
2019-04-21T03:44:10.029Z,9.60
2019-04-21T03:46:41.671Z,12.43
2019-04-21T03:49:11.842Z,8.73
2019-04-21T03:51:37.721Z,10.43
2019-04-21T03:54:13.774Z,9.83
2019-04-21T04:01:51.014Z,9.97
2019-04-21T04:07:03.988Z,9.67
2019-04-21T04:11:51.123Z,10.60
2019-04-21T04:19:26.337Z,9.53
2019-04-21T04:22:07.839Z,11.43
2019-04-21T04:31:57.054Z,10.17
2019-04-21T04:34:27.383Z,9.30
2019-04-21T04:42:27.160Z,11.03
2019-04-21T04:47:16.689Z,10.47
2019-04-21T04:52:27.643Z,13.30
2019-04-21T04:54:52.883Z,12.07
2019-04-21T04:57:22.156Z,12.77
2019-04-21T05:00:00.490Z,11.97
2019-04-21T05:02:27.799Z,10.33
2019-04-21T05:09:57.563Z,10.30
2019-04-21T05:12:11.995Z,10.77
2019-04-21T05:14:46.637Z,10.90
2019-04-21T05:17:26.669Z,11.30
2019-04-21T05:22:17.301Z,10.90
2019-04-21T05:24:38.955Z,10.33
2019-04-21T05:27:08.625Z,11.47
2019-04-21T05:29:49.150Z,12.17
2019-04-21T05:34:42.954Z,10.03
2019-04-21T05:37:37.127Z,10.90
2019-04-21T05:40:00.647Z,10.37
2019-04-21T05:42:36.411Z,11.03
2019-04-21T05:45:17.447Z,11.30
2019-04-21T05:47:49.529Z,11.30
2019-04-21T05:50:14.957Z,10.53
2019-04-21T05:52:51.932Z,11.20
2019-04-21T05:55:34.633Z,10.70
2019-04-21T05:57:57.239Z,10.50
2019-04-21T06:00:46.708Z,10.80
2019-04-21T06:03:05.605Z,10.30
2019-04-21T06:05:37.891Z,10.67
2019-04-21T06:08:02.540Z,10.17
2019-04-21T06:10:37.747Z,10.00
2019-04-21T06:13:09.996Z,9.70
2019-04-21T06:15:41.344Z,13.63
2019-04-21T06:18:06.446Z,9.83
2019-04-21T06:20:33.465Z,9.87
2019-04-21T06:23:03.439Z,10.63
2019-04-21T06:25:51.757Z,12.23
2019-04-21T06:28:08.991Z,10.33
2019-04-21T06:30:40.880Z,11.10
2019-04-21T06:33:12.811Z,13.07
2019-04-21T06:35:58.863Z,12.03
2019-04-21T06:38:28.617Z,12.77
2019-04-21T06:40:48.298Z,10.87
2019-04-21T06:43:28.207Z,10.30
2019-04-21T06:45:50.666Z,10.40
2019-04-21T06:48:21.120Z,10.57
2019-04-21T06:50:52.505Z,10.67
2019-04-21T06:53:20.771Z,11.13
2019-04-21T06:55:44.216Z,11.80
2019-04-21T06:58:16.885Z,11.00
2019-04-21T07:00:45.645Z,11.13
2019-04-21T07:03:20.576Z,11.60
2019-04-21T07:05:51.885Z,12.57
2019-04-21T07:08:34.680Z,11.20
2019-04-21T07:10:46.429Z,10.83
2019-04-21T07:13:15.308Z,12.13
2019-04-21T07:15:53.040Z,11.30
2019-04-21T07:18:19.403Z,12.23
2019-04-21T07:20:49.115Z,12.07
2019-04-21T07:23:15.537Z,14.27
2019-04-21T07:25:45.885Z,11.27
2019-04-21T07:28:17.561Z,11.70
2019-04-21T07:30:56.332Z,11.13
2019-04-21T07:33:47.715Z,15.20
2019-04-21T07:35:43.277Z,12.33
2019-04-21T07:38:16.759Z,14.53
2019-04-21T07:40:43.026Z,12.30
2019-04-21T07:43:10.844Z,11.40
2019-04-21T07:45:40.110Z,11.27
2019-04-21T07:48:29.728Z,10.57
2019-04-21T07:51:04.407Z,10.43
2019-04-21T07:53:51.248Z,10.27
2019-04-21T07:55:53.668Z,10.30
2019-04-21T07:58:45.526Z,13.77
2019-04-21T08:01:12.223Z,11.23
2019-04-21T08:03:38.847Z,10.20
2019-04-21T08:06:18.848Z,13.50
2019-04-21T08:08:42.328Z,12.80
2019-04-21T08:11:10.635Z,11.53
2019-04-21T08:16:12.847Z,10.37
2019-04-21T08:21:12.224Z,9.30
2019-04-21T08:23:41.466Z,9.97
2019-04-21T08:26:07.724Z,11.07
2019-04-21T08:28:47.473Z,9.80
2019-04-21T08:31:14.164Z,10.37
2019-04-21T08:33:51.433Z,10.17
2019-04-21T08:38:41.756Z,10.47
2019-04-21T08:41:15.216Z,9.23
2019-04-21T08:43:44.647Z,11.43
2019-04-21T08:46:13.831Z,8.93
2019-04-21T08:48:48.040Z,8.93
2019-04-21T08:53:50.070Z,9.80
2019-04-21T08:56:21.717Z,7.90
2019-04-21T08:58:54.949Z,7.77
2019-04-21T09:01:30.430Z,8.40
2019-04-21T09:04:13.157Z,8.30
2019-04-21T09:06:55.565Z,9.33
2019-04-21T09:09:11.830Z,8.20
2019-04-21T09:11:45.937Z,8.67
2019-04-21T09:14:12.836Z,7.67
2019-04-21T09:16:39.718Z,7.30
2019-04-21T09:19:01.982Z,6.97
2019-04-21T09:21:47.990Z,7.37
2019-04-21T09:24:14.740Z,7.70
2019-04-21T09:26:42.912Z,6.80
2019-04-21T09:29:05.999Z,7.30
2019-04-21T09:31:29.306Z,6.57
2019-04-21T09:33:57.345Z,6.83
2019-04-21T09:36:33.643Z,7.17
2019-04-21T09:39:00.021Z,7.70
2019-04-21T09:41:25.950Z,7.77
2019-04-21T09:43:57.193Z,6.63
2019-04-21T09:46:25.469Z,7.90
2019-04-21T09:49:00.867Z,7.53
2019-04-21T09:51:24.209Z,7.73
2019-04-21T09:54:00.866Z,8.67
2019-04-21T09:56:31.566Z,6.77
2019-04-21T09:59:07.228Z,10.53
2019-04-21T10:01:30.913Z,7.47
2019-04-21T10:03:59.733Z,7.23
2019-04-21T10:06:25.925Z,7.07
2019-04-21T10:08:58.699Z,6.40
2019-04-21T10:11:24.677Z,15.10
2019-04-21T10:13:53.165Z,7.50
2019-04-21T10:16:26.181Z,7.90
2019-04-21T10:18:54.714Z,5.30
2019-04-21T10:21:25.732Z,8.00
2019-04-21T10:23:54.265Z,5.80
2019-04-21T10:26:24.278Z,5.63
2019-04-21T10:28:53.035Z,5.93
2019-04-21T10:31:22.708Z,5.17
2019-04-21T10:33:52.502Z,5.33
2019-04-21T10:36:21.084Z,4.80
2019-04-21T10:38:52.235Z,5.37
2019-04-21T10:41:19.640Z,5.70
2019-04-21T10:43:49.334Z,6.57
2019-04-21T10:46:19.066Z,6.20
2019-04-21T10:48:48.567Z,6.43
2019-04-21T10:51:17.226Z,6.00
2019-04-21T10:53:50.872Z,4.67
2019-04-21T10:56:25.106Z,5.40
2019-04-21T10:59:08.016Z,4.90
2019-04-21T11:01:36.864Z,4.50
2019-04-21T11:04:17.212Z,4.70
2019-04-21T11:06:39.909Z,5.03
2019-04-21T11:09:10.773Z,5.47
2019-04-21T11:11:39.741Z,6.10
2019-04-21T11:14:10.588Z,5.73
2019-04-21T11:16:39.246Z,4.60
2019-04-21T11:19:07.840Z,6.37
2019-04-21T11:21:36.685Z,5.40
2019-04-21T11:24:06.042Z,5.67
2019-04-21T11:26:35.814Z,5.80
2019-04-21T11:29:05.223Z,5.10
2019-04-21T11:31:33.734Z,5.93
2019-04-21T11:34:03.011Z,7.63
2019-04-21T11:36:31.609Z,5.37
2019-04-21T11:39:16.336Z,7.07
2019-04-21T11:41:31.943Z,7.07
2019-04-21T11:44:01.466Z,5.37
2019-04-21T11:46:30.737Z,11.77
2019-04-21T11:49:00.056Z,4.93
2019-04-21T11:51:28.985Z,6.57
2019-04-21T11:53:59.029Z,4.90
2019-04-21T11:56:27.581Z,5.57
2019-04-21T11:58:57.564Z,7.23
2019-04-21T12:01:27.531Z,6.30
2019-04-21T12:03:56.071Z,4.60
2019-04-21T12:06:32.239Z,5.50
2019-04-21T12:08:57.680Z,4.70
2019-04-21T12:11:25.215Z,5.03
2019-04-21T12:13:54.269Z,5.00
2019-04-21T12:16:23.331Z,4.90
2019-04-21T12:18:52.422Z,5.83
2019-04-21T12:21:21.222Z,4.87
2019-04-21T12:23:50.294Z,6.73
2019-04-21T12:26:19.943Z,6.10
2019-04-21T12:28:50.026Z,6.67
2019-04-21T12:31:23.475Z,6.07
2019-04-21T12:33:56.241Z,5.13
2019-04-21T12:36:24.797Z,4.97
2019-04-21T12:38:57.737Z,5.80
2019-04-21T12:41:24.340Z,4.60
2019-04-21T12:43:53.086Z,6.00
2019-04-21T12:46:22.106Z,4.73
2019-04-21T12:48:51.631Z,5.53
2019-04-21T12:51:20.085Z,4.63
2019-04-21T12:53:49.771Z,4.20
2019-04-21T12:56:19.724Z,4.27
2019-04-21T12:58:49.066Z,5.57
2019-04-21T13:01:18.844Z,4.90
2019-04-21T13:03:47.961Z,4.10
2019-04-21T13:06:16.518Z,4.60
2019-04-21T13:08:53.586Z,4.43
2019-04-21T13:11:15.139Z,4.67
2019-04-21T13:13:43.900Z,4.87
2019-04-21T13:16:13.527Z,4.80
2019-04-21T13:18:42.167Z,5.13
2019-04-21T13:21:11.926Z,4.77
2019-04-21T13:23:41.114Z,4.57
2019-04-21T13:26:11.268Z,4.97
2019-04-21T13:28:40.425Z,5.33
2019-04-21T13:31:09.077Z,5.10
2019-04-21T13:33:37.777Z,5.20
2019-04-21T13:36:07.632Z,5.33
2019-04-21T13:38:50.489Z,5.53
2019-04-21T13:41:22.788Z,5.20
2019-04-21T13:43:41.177Z,4.90
2019-04-21T13:46:10.048Z,9.70
2019-04-21T13:48:40.021Z,5.67
2019-04-21T13:51:09.146Z,5.07
2019-04-21T13:53:37.937Z,4.50
2019-04-21T13:56:06.827Z,4.17
2019-04-21T13:58:35.391Z,13.20
2019-04-21T14:01:05.653Z,11.30
2019-04-21T14:03:35.371Z,9.73
2019-04-21T14:06:04.562Z,5.60
2019-04-21T14:08:33.530Z,3.97
2019-04-21T14:11:02.163Z,3.33
2019-04-21T14:13:30.592Z,3.70
2019-04-21T14:15:59.941Z,4.43
2019-04-21T14:18:28.911Z,4.93
2019-04-21T14:20:57.492Z,3.80
2019-04-21T14:23:34.498Z,3.60
2019-04-21T14:25:57.269Z,3.10
2019-04-21T14:28:26.116Z,3.47
2019-04-21T14:30:54.561Z,4.37
2019-04-21T14:33:23.718Z,4.50
2019-04-21T14:35:52.706Z,3.70
2019-04-21T14:38:22.669Z,3.20
2019-04-21T14:40:52.146Z,3.83
2019-04-21T14:43:21.696Z,3.23
2019-04-21T14:45:52.812Z,3.70
2019-04-21T14:48:39.293Z,3.27
2019-04-21T14:51:18.864Z,4.33
2019-04-21T14:53:49.868Z,3.40
2019-04-21T14:56:19.386Z,4.43
2019-04-21T14:58:48.788Z,2.83
2019-04-21T15:01:17.823Z,3.10
2019-04-21T15:03:47.867Z,3.60
2019-04-21T15:06:16.394Z,4.00
2019-04-21T15:08:44.972Z,3.93
2019-04-21T15:11:14.006Z,3.83
2019-04-21T15:13:43.840Z,3.67
2019-04-21T15:16:13.017Z,5.63
2019-04-21T15:18:41.668Z,4.40
2019-04-21T15:21:11.142Z,5.93
2019-04-21T15:23:40.279Z,6.33
2019-04-21T15:26:10.288Z,5.53
2019-04-21T15:28:40.629Z,5.67
2019-04-21T15:31:12.792Z,7.57
2019-04-21T15:33:39.331Z,3.47
2019-04-21T15:36:08.996Z,5.17
2019-04-21T15:38:38.100Z,5.03
2019-04-21T15:41:10.287Z,4.27
2019-04-21T15:43:36.802Z,3.70
2019-04-21T15:46:06.655Z,3.70
2019-04-21T15:48:35.295Z,4.40
2019-04-21T15:51:05.574Z,3.70
2019-04-21T15:53:37.304Z,3.77
2019-04-21T15:56:11.009Z,3.97
2019-04-21T15:58:43.979Z,5.13
2019-04-21T16:01:17.024Z,4.63
2019-04-21T16:03:46.871Z,5.17
2019-04-21T16:06:15.451Z,4.20
2019-04-21T16:08:47.626Z,4.13
2019-04-21T16:11:13.987Z,4.67
2019-04-21T16:13:43.639Z,5.30
2019-04-21T16:16:12.639Z,3.90
2019-04-21T16:18:42.508Z,4.63
2019-04-21T16:21:11.708Z,4.13
2019-04-21T16:23:40.560Z,5.60
2019-04-21T16:26:10.753Z,3.83
2019-04-21T16:28:39.633Z,3.80
2019-04-21T16:31:08.190Z,4.23
2019-04-21T16:33:36.862Z,4.40
2019-04-21T16:36:08.205Z,3.73
2019-04-21T16:38:35.717Z,5.07
2019-04-21T16:41:07.212Z,4.90
2019-04-21T16:43:35.366Z,6.33
2019-04-21T16:46:04.676Z,4.00
2019-04-21T16:48:33.773Z,4.63
2019-04-21T16:51:03.665Z,4.10
2019-04-21T16:53:37.600Z,4.23
2019-04-21T16:56:26.890Z,4.50
2019-04-21T16:58:57.148Z,4.73
2019-04-21T17:01:29.172Z,4.60
2019-04-21T17:03:58.323Z,4.77
2019-04-21T17:06:27.131Z,5.63
2019-04-21T17:08:56.743Z,5.10
2019-04-21T17:11:30.373Z,5.03
2019-04-21T17:13:56.570Z,7.17
2019-04-21T17:17:02.996Z,12.80
2019-04-21T17:19:05.215Z,4.60
2019-04-21T17:21:26.138Z,6.93
2019-04-21T17:23:56.517Z,4.43
2019-04-21T17:26:25.247Z,4.07
2019-04-21T17:28:54.347Z,4.43
2019-04-21T17:31:24.466Z,4.90
2019-04-21T17:34:02.421Z,5.57
2019-04-21T17:36:23.285Z,6.27
2019-04-21T17:38:52.267Z,4.40
2019-04-21T17:41:29.019Z,4.20
2019-04-21T17:43:52.497Z,5.03
2019-04-21T17:46:31.533Z,4.20
2019-04-21T17:48:52.625Z,5.40
2019-04-21T17:51:25.697Z,4.67
2019-04-21T17:53:59.338Z,4.27
2019-04-21T17:56:59.453Z,6.13
2019-04-21T17:59:27.977Z,5.37
2019-04-21T18:01:56.042Z,4.57
2019-04-21T18:04:25.903Z,5.27
2019-04-21T18:07:01.831Z,6.80
2019-04-21T18:09:44.832Z,4.53
2019-04-21T18:12:07.682Z,6.53
2019-04-21T18:14:22.074Z,3.83
2019-04-21T18:16:51.579Z,6.17
2019-04-21T18:19:26.265Z,7.93
2019-04-21T18:21:59.216Z,5.00
2019-04-21T18:24:38.088Z,4.20
2019-04-21T18:26:58.817Z,4.47
2019-04-21T18:29:25.610Z,4.50
2019-04-21T18:31:54.641Z,4.53
2019-04-21T18:34:44.027Z,4.43
2019-04-21T18:37:33.024Z,4.77
2019-04-21T18:40:05.316Z,5.97
2019-04-21T18:43:04.455Z,4.43
2019-04-21T18:45:50.283Z,4.60
2019-04-21T18:48:09.453Z,5.07
2019-04-21T18:50:41.770Z,5.97
2019-04-21T18:53:19.427Z,4.10
2019-04-21T18:55:45.116Z,4.77
2019-04-21T18:58:11.952Z,4.90
2019-04-21T19:00:42.207Z,6.70
2019-04-21T19:03:11.783Z,5.27
2019-04-21T19:05:45.739Z,4.97
2019-04-21T19:08:26.488Z,6.30
2019-04-21T19:11:05.377Z,4.93
2019-04-21T19:16:22.862Z,5.43
2019-04-21T19:20:53.777Z,4.00
2019-04-21T19:23:39.153Z,4.77
2019-04-21T19:26:09.964Z,6.63
2019-04-21T19:28:36.467Z,4.07
2019-04-21T19:31:07.709Z,5.67
2019-04-21T19:33:24.161Z,4.43
2019-04-21T19:35:41.590Z,5.67
2019-04-21T19:38:13.673Z,5.37
2019-04-21T19:40:52.236Z,5.67
2019-04-21T19:43:31.502Z,6.17
2019-04-21T19:45:54.101Z,5.30
2019-04-21T19:48:27.521Z,4.70
2019-04-21T19:51:04.309Z,9.20
2019-04-21T19:53:24.331Z,5.20
2019-04-21T19:55:42.326Z,5.30
2019-04-21T19:58:10.912Z,4.63
2019-04-21T20:00:40.215Z,4.87
2019-04-21T20:03:10.367Z,6.27
2019-04-21T20:05:47.635Z,7.00
2019-04-21T20:08:23.685Z,5.27
2019-04-21T20:11:01.179Z,5.03
2019-04-21T20:13:40.769Z,5.63
2019-04-21T20:15:57.124Z,4.63
2019-04-21T20:18:21.177Z,5.37
2019-04-21T20:20:41.107Z,7.43
2019-04-21T20:23:19.313Z,5.60
2019-04-21T20:25:47.422Z,5.13
2019-04-21T20:28:21.167Z,5.27
2019-04-21T20:30:58.360Z,5.23
2019-04-21T20:33:46.908Z,4.20
2019-04-21T20:36:15.833Z,5.77
2019-04-21T20:38:19.337Z,6.33
2019-04-21T20:40:51.026Z,8.50
2019-04-21T20:43:30.988Z,6.00
2019-04-21T20:48:21.244Z,5.00
2019-04-21T20:51:00.244Z,4.93
2019-04-21T20:53:29.101Z,6.00
2019-04-21T20:55:53.074Z,6.43
2019-04-21T20:58:28.065Z,8.23
2019-04-21T21:03:29.118Z,7.30
2019-04-21T21:05:54.241Z,7.40
2019-04-21T21:08:32.765Z,6.57
2019-04-21T21:10:58.627Z,8.93
2019-04-21T21:13:33.414Z,8.23
2019-04-21T21:16:10.263Z,7.80
2019-04-21T21:18:52.013Z,6.27
2019-04-21T21:21:00.355Z,7.87
2019-04-21T21:23:33.475Z,7.77
2019-04-21T21:26:03.886Z,7.87
2019-04-21T21:28:27.727Z,7.03
2019-04-21T21:30:59.389Z,8.27
2019-04-21T21:33:27.566Z,7.23
2019-04-21T21:36:01.359Z,5.97
2019-04-21T21:38:30.789Z,5.90
2019-04-21T21:40:57.037Z,6.90
2019-04-21T21:43:19.218Z,8.77
2019-04-21T21:45:50.008Z,7.50
2019-04-21T21:48:27.469Z,5.77
2019-04-21T21:50:57.733Z,6.57
2019-04-21T21:53:19.777Z,6.13
2019-04-21T21:55:44.947Z,7.93
2019-04-21T21:58:14.298Z,6.80
2019-04-21T22:00:49.829Z,6.10
2019-04-21T22:03:24.458Z,6.77
2019-04-21T22:05:53.523Z,6.67
2019-04-21T22:08:16.343Z,6.03
2019-04-21T22:10:45.389Z,7.30
2019-04-21T22:13:17.760Z,5.50
2019-04-21T22:15:49.392Z,5.33
2019-04-21T22:18:28.515Z,7.17
2019-04-21T22:21:04.905Z,20.57
2019-04-21T22:23:26.013Z,7.37
2019-04-21T22:25:45.760Z,6.93
2019-04-21T22:28:15.828Z,7.87
2019-04-21T22:30:48.284Z,5.77
2019-04-21T22:33:17.747Z,5.80
2019-04-21T22:35:53.274Z,8.20
2019-04-21T22:38:28.371Z,15.03
2019-04-21T22:40:58.028Z,8.20
2019-04-21T22:43:22.313Z,5.60
2019-04-21T22:45:45.659Z,7.10
2019-04-21T22:48:18.211Z,6.27
2019-04-21T22:50:44.535Z,7.60
2019-04-21T22:53:15.476Z,6.37
2019-04-21T22:55:43.187Z,5.70
2019-04-21T22:58:11.659Z,5.73
2019-04-21T23:00:46.411Z,6.57
2019-04-21T23:03:16.410Z,13.47
2019-04-21T23:05:44.695Z,6.93
2019-04-21T23:08:13.046Z,6.17
2019-04-21T23:10:49.581Z,7.10
2019-04-21T23:13:17.833Z,6.40
2019-04-21T23:15:47.571Z,5.80
2019-04-21T23:18:30.754Z,6.30
2019-04-21T23:20:57.773Z,5.80
2019-04-21T23:23:37.099Z,6.53
2019-04-21T23:26:01.283Z,5.87
2019-04-21T23:28:39.081Z,6.70
2019-04-21T23:31:03.590Z,6.30
2019-04-21T23:33:16.418Z,5.63
2019-04-21T23:35:46.069Z,5.30
2019-04-21T23:38:14.734Z,7.23
2019-04-21T23:40:49.540Z,7.40
2019-04-21T23:43:19.428Z,8.23
2019-04-21T23:45:46.491Z,5.93
2019-04-21T23:48:25.924Z,6.33
2019-04-21T23:50:51.318Z,5.07
2019-04-21T23:53:15.369Z,5.97
2019-04-21T23:55:45.212Z,12.47
2019-04-21T23:58:21.395Z,6.00
